createdAt,value
2022-10-08T00:01:44.486Z,16.04
2022-10-08T00:06:04.539Z,15.99
2022-10-08T00:10:08.021Z,15.96
2022-10-08T00:14:09.688Z,15.95
2022-10-08T00:18:11.186Z,15.99
2022-10-08T00:22:13.229Z,16.03
2022-10-08T00:26:17.219Z,16.06
2022-10-08T00:30:18.946Z,16.06
2022-10-08T00:34:23.228Z,16.03
2022-10-08T00:38:24.700Z,15.99
2022-10-08T00:42:26.380Z,15.99
2022-10-08T00:46:45.872Z,16.01
2022-10-08T00:50:47.824Z,16.01
2022-10-08T00:54:51.619Z,16.03
2022-10-08T00:58:53.558Z,16.04
2022-10-08T01:02:55.195Z,16.07
2022-10-08T01:07:05.434Z,16.07
2022-10-08T01:11:14.110Z,16.08
2022-10-08T01:15:15.573Z,16.07
2022-10-08T01:19:55.072Z,16.07
2022-10-08T01:24:08.537Z,16.06
2022-10-08T01:28:15.746Z,16.06
2022-10-08T01:32:22.155Z,16.06
2022-10-08T01:36:25.732Z,16.04
2022-10-08T01:40:31.812Z,16.07
2022-10-08T01:44:42.101Z,16.06
2022-10-08T01:48:44.425Z,16.03
2022-10-08T01:52:54.553Z,15.98
2022-10-08T01:56:58.112Z,15.95
2022-10-08T02:01:08.651Z,15.91
2022-10-08T02:05:11.704Z,15.91
2022-10-08T02:09:14.235Z,15.89
2022-10-08T02:13:15.851Z,15.86
2022-10-08T02:17:51.126Z,15.86
2022-10-08T02:21:55.959Z,15.86
2022-10-08T02:26:19.406Z,15.78
2022-10-08T02:30:22.242Z,15.76
2022-10-08T02:34:41.424Z,15.74
2022-10-08T02:38:53.602Z,15.68
2022-10-08T02:43:01.418Z,15.68
2022-10-08T02:47:06.638Z,15.66
2022-10-08T02:51:12.963Z,15.64
2022-10-08T02:55:23.770Z,15.62
2022-10-08T02:59:25.344Z,15.55
2022-10-08T03:03:33.416Z,15.53
2022-10-08T03:07:35.128Z,15.55
2022-10-08T03:11:37.081Z,15.58
2022-10-08T03:15:41.120Z,15.58
2022-10-08T03:19:42.588Z,15.53
2022-10-08T03:23:44.172Z,15.53
2022-10-08T03:27:45.702Z,15.52
2022-10-08T03:31:48.534Z,15.52
2022-10-08T03:35:50.091Z,15.49
2022-10-08T03:39:51.651Z,15.46
2022-10-08T03:43:53.138Z,15.43
2022-10-08T03:47:54.624Z,15.43
2022-10-08T03:51:56.139Z,15.41
2022-10-08T03:56:08.034Z,15.38
2022-10-08T04:00:10.065Z,15.33
2022-10-08T04:04:11.575Z,15.27
2022-10-08T04:08:13.104Z,15.19
2022-10-08T04:12:14.645Z,15.15
2022-10-08T04:16:19.650Z,15.09
2022-10-08T04:20:21.161Z,15.03
2022-10-08T04:24:22.742Z,15.00
2022-10-08T04:28:24.644Z,14.98
2022-10-08T04:32:26.197Z,14.94
2022-10-08T04:36:27.698Z,14.90
2022-10-08T04:40:29.220Z,14.83
2022-10-08T04:44:30.748Z,14.78
2022-10-08T04:48:32.266Z,14.67
2022-10-08T04:52:33.785Z,14.64
2022-10-08T04:56:36.457Z,14.59
2022-10-08T05:00:37.919Z,14.54
2022-10-08T05:04:39.446Z,14.48
2022-10-08T05:08:41.089Z,14.44
2022-10-08T05:12:42.585Z,14.44
2022-10-08T05:16:44.225Z,14.38
2022-10-08T05:20:45.753Z,14.34
2022-10-08T05:24:47.261Z,14.29
2022-10-08T05:28:48.854Z,14.29
2022-10-08T05:32:50.505Z,14.26
2022-10-08T05:36:52.048Z,14.24
2022-10-08T05:40:53.545Z,14.23
2022-10-08T05:44:55.114Z,14.21
2022-10-08T05:48:59.112Z,14.20
2022-10-08T05:53:00.621Z,14.19
2022-10-08T05:57:02.163Z,14.17
2022-10-08T06:01:06.128Z,14.16
2022-10-08T06:05:07.997Z,14.17
2022-10-08T06:09:13.395Z,14.16
2022-10-08T06:13:14.884Z,14.13
2022-10-08T06:17:16.486Z,14.16
2022-10-08T06:21:24.079Z,14.13
2022-10-08T06:25:25.580Z,14.13
2022-10-08T06:29:27.161Z,14.13
2022-10-08T06:33:29.125Z,14.09
2022-10-08T06:37:30.607Z,14.05
2022-10-08T06:41:35.367Z,14.02
2022-10-08T06:45:40.902Z,14.02
2022-10-08T06:49:42.466Z,14.01
2022-10-08T06:53:44.972Z,14.01
2022-10-08T06:57:46.496Z,13.99
2022-10-08T07:01:48.034Z,13.99
2022-10-08T07:05:49.563Z,13.98
2022-10-08T07:09:51.065Z,13.94
2022-10-08T07:13:54.281Z,13.93
2022-10-08T07:17:55.751Z,13.96
2022-10-08T07:22:01.179Z,13.94
2022-10-08T07:26:06.575Z,13.94
2022-10-08T07:30:08.420Z,13.93
2022-10-08T07:34:13.535Z,13.99
2022-10-08T07:38:18.384Z,14.04
2022-10-08T07:42:19.981Z,14.12
2022-10-08T07:46:21.998Z,14.16
2022-10-08T07:50:24.406Z,14.21
2022-10-08T07:54:25.898Z,14.23
2022-10-08T07:58:27.391Z,14.24
2022-10-08T08:02:28.983Z,14.27
2022-10-08T08:06:31.904Z,14.36
2022-10-08T08:10:33.438Z,14.48
2022-10-08T08:14:35.071Z,14.57
2022-10-08T08:18:38.963Z,14.71
2022-10-08T08:22:40.454Z,14.83
2022-10-08T08:26:43.301Z,14.97
2022-10-08T08:30:45.034Z,15.12
2022-10-08T08:34:46.972Z,15.25
2022-10-08T08:38:48.540Z,15.35
2022-10-08T08:42:54.694Z,15.48
2022-10-08T08:47:07.461Z,15.59
2022-10-08T08:51:09.066Z,15.71
2022-10-08T08:55:23.464Z,15.86
2022-10-08T08:59:41.405Z,15.96
2022-10-08T09:03:45.877Z,16.11
2022-10-08T09:07:55.910Z,16.16
2022-10-08T09:11:58.100Z,16.25
2022-10-08T09:15:59.838Z,16.30
2022-10-08T09:20:01.758Z,16.41
2022-10-08T09:24:03.406Z,16.52
2022-10-08T09:28:05.090Z,16.55
2022-10-08T09:32:14.517Z,16.62
2022-10-08T09:36:29.352Z,16.80
2022-10-08T09:40:30.954Z,16.91
2022-10-08T09:44:44.394Z,17.00
2022-10-08T09:48:45.934Z,17.14
2022-10-08T09:52:50.451Z,17.25
2022-10-08T09:56:55.437Z,17.33
2022-10-08T10:01:03.809Z,17.40
2022-10-08T10:05:07.940Z,17.49
2022-10-08T10:09:28.135Z,17.57
2022-10-08T10:13:37.743Z,17.60
2022-10-08T10:17:43.417Z,17.71
2022-10-08T10:21:58.025Z,17.81
2022-10-08T10:26:23.763Z,17.98
2022-10-08T10:30:25.992Z,18.25
2022-10-08T10:34:30.341Z,18.46
2022-10-08T10:38:40.756Z,18.54
2022-10-08T10:42:56.022Z,18.68
2022-10-08T10:47:00.518Z,18.76
2022-10-08T10:51:26.503Z,19.09
2022-10-08T10:55:36.894Z,19.25
2022-10-08T11:00:13.649Z,19.16
2022-10-08T11:04:39.225Z,19.23
2022-10-08T11:08:51.555Z,19.21
2022-10-08T11:13:21.852Z,19.23
2022-10-08T11:17:30.119Z,19.17
2022-10-08T11:21:52.735Z,19.21
2022-10-08T11:26:21.442Z,19.27
2022-10-08T11:30:32.916Z,19.13
2022-10-08T11:34:36.875Z,18.90
2022-10-08T11:38:44.228Z,18.72
2022-10-08T11:42:48.548Z,18.65
2022-10-08T11:46:50.673Z,18.57
2022-10-08T11:50:52.292Z,18.64
2022-10-08T11:54:56.034Z,18.72
2022-10-08T11:59:01.978Z,18.69
2022-10-08T12:03:17.193Z,18.66
2022-10-08T12:07:27.820Z,18.34
2022-10-08T12:11:32.275Z,18.17
2022-10-08T12:15:35.378Z,18.04
2022-10-08T12:19:44.344Z,18.07
2022-10-08T12:23:46.268Z,18.04
2022-10-08T12:27:47.791Z,18.07
2022-10-08T12:32:00.814Z,17.94
2022-10-08T12:36:24.377Z,17.86
2022-10-08T12:40:54.214Z,17.86
2022-10-08T12:44:58.628Z,17.86
2022-10-08T12:49:08.992Z,17.84
2022-10-08T12:53:16.175Z,17.84
2022-10-08T12:57:24.257Z,18.02
2022-10-08T13:01:26.348Z,18.26
2022-10-08T13:05:34.093Z,18.42
2022-10-08T13:09:35.823Z,18.51
2022-10-08T13:13:40.362Z,18.64
2022-10-08T13:17:41.874Z,18.64
2022-10-08T13:21:58.222Z,18.84
2022-10-08T13:26:00.709Z,18.89
2022-10-08T13:30:22.114Z,18.99
2022-10-08T13:34:26.314Z,18.94
2022-10-08T13:38:32.073Z,18.78
2022-10-08T13:42:36.634Z,18.60
2022-10-08T13:46:38.237Z,18.62
2022-10-08T13:50:48.653Z,18.72
2022-10-08T13:54:56.085Z,18.57
2022-10-08T13:58:57.609Z,18.41
2022-10-08T14:02:59.525Z,18.50
2022-10-08T14:07:02.499Z,18.78
2022-10-08T14:11:04.079Z,18.65
2022-10-08T14:15:06.542Z,18.59
2022-10-08T14:19:11.991Z,18.51
2022-10-08T14:23:14.167Z,18.42
2022-10-08T14:27:15.688Z,18.41
2022-10-08T14:31:17.453Z,18.60
2022-10-08T14:35:19.671Z,18.59
2022-10-08T14:39:22.472Z,18.57
2022-10-08T14:43:27.551Z,18.47
2022-10-08T14:47:29.312Z,18.46
2022-10-08T14:51:38.144Z,18.50
2022-10-08T14:55:54.707Z,18.83
2022-10-08T15:00:01.346Z,19.06
2022-10-08T15:04:04.744Z,18.84
2022-10-08T15:08:06.259Z,18.83
2022-10-08T15:12:08.424Z,18.96
2022-10-08T15:16:12.289Z,19.06
2022-10-08T15:20:14.404Z,19.17
2022-10-08T15:24:16.165Z,19.23
2022-10-08T15:28:17.710Z,19.01
2022-10-08T15:32:19.257Z,18.96
2022-10-08T15:36:26.914Z,18.93
2022-10-08T15:40:31.792Z,18.86
2022-10-08T15:44:33.340Z,18.76
2022-10-08T15:48:34.814Z,18.69
2022-10-08T15:52:36.451Z,18.65
2022-10-08T15:56:38.218Z,18.53
2022-10-08T16:00:39.758Z,18.39
2022-10-08T16:04:41.306Z,18.28
2022-10-08T16:08:44.887Z,18.13
2022-10-08T16:12:46.787Z,17.99
2022-10-08T16:16:49.551Z,17.84
2022-10-08T16:20:52.797Z,17.73
2022-10-08T16:24:54.441Z,17.62
2022-10-08T16:29:00.952Z,17.49
2022-10-08T16:33:02.570Z,17.39
2022-10-08T16:37:04.897Z,17.27
2022-10-08T16:41:21.018Z,17.18
2022-10-08T16:45:22.641Z,17.07
2022-10-08T16:49:30.325Z,16.99
2022-10-08T16:53:31.880Z,16.90
2022-10-08T16:57:34.742Z,16.80
2022-10-08T17:01:38.339Z,16.70
2022-10-08T17:05:41.805Z,16.60
2022-10-08T17:09:43.331Z,16.54
2022-10-08T17:13:47.217Z,16.40
2022-10-08T17:17:52.069Z,16.27
2022-10-08T17:21:56.881Z,16.17
2022-10-08T17:25:59.368Z,16.10
2022-10-08T17:30:00.906Z,16.03
2022-10-08T17:34:04.009Z,15.96
2022-10-08T17:38:05.527Z,15.88
2022-10-08T17:42:07.469Z,15.81
2022-10-08T17:46:17.596Z,15.73
2022-10-08T17:50:19.356Z,15.66
2022-10-08T17:54:22.551Z,15.60
2022-10-08T17:58:24.065Z,15.55
2022-10-08T18:02:25.851Z,15.51
2022-10-08T18:06:28.199Z,15.48
2022-10-08T18:10:29.730Z,15.37
2022-10-08T18:14:31.453Z,15.30
2022-10-08T18:18:33.137Z,15.12
2022-10-08T18:22:34.700Z,15.04
2022-10-08T18:26:37.028Z,14.97
2022-10-08T18:30:38.953Z,14.93
2022-10-08T18:34:40.496Z,14.93
2022-10-08T18:38:43.952Z,14.87
2022-10-08T18:42:45.803Z,14.82
2022-10-08T18:46:48.016Z,14.78
2022-10-08T18:50:49.793Z,14.66
2022-10-08T18:54:51.320Z,14.60
2022-10-08T18:58:53.068Z,14.52
2022-10-08T19:02:57.101Z,14.45
2022-10-08T19:06:58.700Z,14.34
2022-10-08T19:11:08.612Z,14.24
2022-10-08T19:15:10.367Z,14.20
2022-10-08T19:19:17.918Z,14.17
2022-10-08T19:23:19.521Z,14.02
2022-10-08T19:27:21.066Z,13.96
2022-10-08T19:31:31.217Z,13.96
2022-10-08T19:35:32.819Z,13.98
2022-10-08T19:39:34.469Z,13.96
2022-10-08T19:43:36.140Z,13.93
2022-10-08T19:47:37.822Z,13.94
2022-10-08T19:51:39.710Z,13.94
2022-10-08T19:55:41.305Z,13.87
2022-10-08T19:59:42.951Z,13.68
2022-10-08T20:03:44.763Z,13.66
2022-10-08T20:07:46.380Z,13.69
2022-10-08T20:11:47.935Z,13.69
2022-10-08T20:15:51.431Z,13.63
2022-10-08T20:19:58.554Z,13.62
2022-10-08T20:24:11.782Z,13.53
2022-10-08T20:28:13.313Z,13.46
2022-10-08T20:32:14.851Z,13.43
2022-10-08T20:36:17.360Z,13.38
2022-10-08T20:40:18.890Z,13.35
2022-10-08T20:44:20.616Z,13.31
2022-10-08T20:48:22.252Z,13.28
2022-10-08T20:52:23.778Z,13.27
2022-10-08T20:56:26.257Z,13.24
2022-10-08T21:00:28.262Z,13.14
2022-10-08T21:04:30.061Z,13.12
2022-10-08T21:08:32.326Z,13.07
2022-10-08T21:12:34.136Z,13.06
2022-10-08T21:16:38.466Z,13.04
2022-10-08T21:20:40.088Z,13.01
2022-10-08T21:24:41.640Z,12.98
2022-10-08T21:28:45.746Z,12.89
2022-10-08T21:32:48.752Z,12.80
2022-10-08T21:36:50.521Z,12.79
2022-10-08T21:40:57.952Z,12.81
2022-10-08T21:44:59.679Z,12.80
2022-10-08T21:49:04.147Z,12.79
2022-10-08T21:53:05.693Z,12.73
2022-10-08T21:57:07.335Z,12.73
2022-10-08T22:01:20.147Z,12.63
2022-10-08T22:05:22.148Z,12.63
2022-10-08T22:09:29.972Z,12.61
2022-10-08T22:13:32.009Z,12.59
2022-10-08T22:17:33.489Z,12.54
2022-10-08T22:21:35.374Z,12.33
2022-10-08T22:25:36.927Z,12.34
2022-10-08T22:29:38.459Z,12.37
2022-10-08T22:33:40.189Z,12.36
2022-10-08T22:37:41.706Z,12.33
2022-10-08T22:41:43.248Z,12.25
2022-10-08T22:45:44.893Z,12.19
2022-10-08T22:49:46.742Z,12.18
2022-10-08T22:53:48.684Z,12.18
2022-10-08T22:57:50.198Z,12.15
2022-10-08T23:01:51.768Z,12.08
2022-10-08T23:06:08.826Z,12.11
2022-10-08T23:10:10.342Z,12.05
2022-10-08T23:14:11.836Z,12.04
2022-10-08T23:18:13.406Z,12.00
2022-10-08T23:22:14.956Z,11.93
2022-10-08T23:26:17.312Z,11.81
2022-10-08T23:30:41.702Z,11.82
2022-10-08T23:34:40.295Z,11.78
2022-10-08T23:38:42.045Z,11.74
2022-10-08T23:42:43.508Z,11.70
2022-10-08T23:46:45.012Z,11.67
2022-10-08T23:50:53.556Z,11.63
2022-10-08T23:54:55.109Z,11.62
2022-10-08T23:58:57.800Z,11.62
